Time;durP1;ratioP1;P1;durP2;ratioP2;P2;SDS_P1;SDS_P2;PMS_P1;PMS_P2;Temp;Humidity;BMP_temperature;BMP_pressure;BME280_temperature;BME280_humidity;BME280_pressure;Samples;Min_cycle;Max_cycle;Signal;HPM_P1;HPM_P2
2022/04/09 00:01:01;;;;;;;;;;;2.20;99.90;;;;;;5093870;28;19931;-77
2022/04/09 00:03:27;;;;;;;;;;;2.20;99.90;;;;;;5094040;28;20303;-77
2022/04/09 00:05:52;;;;;;;;;;;2.20;99.90;;;;;;5093446;28;19940;-76
2022/04/09 00:08:18;;;;;;;;;;;2.20;99.90;;;;;;5093941;28;19909;-76
2022/04/09 00:10:44;;;;;;;;;;;2.30;99.90;;;;;;5094149;28;19908;-76
2022/04/09 00:13:09;;;;;;;;;;;2.30;99.90;;;;;;5093185;28;20595;-77
2022/04/09 00:15:35;;;;;;;;;;;2.30;99.90;;;;;;5093837;28;20391;-77
2022/04/09 00:18:00;;;;;;;;;;;2.30;99.90;;;;;;5093274;28;19908;-77
2022/04/09 00:20:26;;;;;;;;;;;2.30;99.90;;;;;;5094351;28;19998;-77
2022/04/09 00:22:52;;;;;;;;;;;2.30;99.90;;;;;;5092946;28;20366;-76
2022/04/09 00:25:23;;;;;;;;;;;2.20;99.90;;;;;;5093576;28;19931;-77
2022/04/09 00:27:52;;;;;;;;;;;2.20;99.90;;;;;;5093169;28;19908;-75
2022/04/09 00:30:18;;;;;;;;;;;2.20;99.90;;;;;;5093780;28;20002;-77
2022/04/09 00:32:44;;;;;;;;;;;2.20;99.90;;;;;;5092514;28;19998;-76
2022/04/09 00:35:09;;;;;;;;;;;2.20;99.90;;;;;;5093487;28;20789;-77
2022/04/09 00:37:44;;;;;;;;;;;2.20;99.90;;;;;;5093456;28;19908;-77
2022/04/09 00:40:11;;;;;;;;;;;2.20;99.90;;;;;;5093040;28;20231;-77
2022/04/09 00:42:36;;;;;;;;;;;2.30;99.90;;;;;;5103323;28;19928;-78
2022/04/09 00:45:02;;;;;;;;;;;2.30;99.90;;;;;;5103010;28;19912;-77
2022/04/09 00:47:28;;;;;;;;;;;2.20;99.90;;;;;;5093815;28;19908;-76
2022/04/09 00:49:53;;;;;;;;;;;2.30;99.90;;;;;;5093262;28;20290;-77
2022/04/09 00:52:20;;;;;;;;;;;2.20;99.90;;;;;;5092896;28;20281;-77
2022/04/09 00:54:48;;;;;;;;;;;2.20;99.90;;;;;;5093229;28;19962;-77
2022/04/09 00:57:14;;;;;;;;;;;2.20;99.90;;;;;;5092830;28;19908;-78
2022/04/09 00:59:42;;;;;;;;;;;2.10;99.90;;;;;;5093263;28;19923;-77
2022/04/09 01:02:08;;;;;;;;;;;2.10;99.90;;;;;;5091844;28;19915;-77
2022/04/09 01:04:34;;;;;;;;;;;2.10;99.90;;;;;;5092906;28;19908;-77
2022/04/09 01:07:00;;;;;;;;;;;2.00;99.90;;;;;;5092809;28;20346;-77
2022/04/09 01:09:26;;;;;;;;;;;2.10;99.90;;;;;;5093046;28;19908;-77
2022/04/09 01:11:52;;;;;;;;;;;2.00;99.90;;;;;;5092698;28;19908;-76
2022/04/09 01:14:17;;;;;;;;;;;2.00;99.90;;;;;;5092655;28;20452;-76
2022/04/09 01:16:43;;;;;;;;;;;2.00;99.90;;;;;;5092993;28;19912;-77
2022/04/09 01:19:09;;;;;;;;;;;1.90;99.90;;;;;;5092429;28;19914;-77
2022/04/09 01:21:34;;;;;;;;;;;1.90;99.90;;;;;;5092733;28;19908;-77
2022/04/09 01:24:01;;;;;;;;;;;1.90;99.90;;;;;;5092887;28;19912;-76
2022/04/09 01:26:26;;;;;;;;;;;1.90;99.90;;;;;;5093335;28;20364;-76
2022/04/09 01:28:52;;;;;;;;;;;1.90;99.90;;;;;;5091621;28;19915;-76
2022/04/09 01:31:18;;;;;;;;;;;1.80;99.90;;;;;;5092840;28;20370;-76
2022/04/09 01:33:44;;;;;;;;;;;1.80;99.90;;;;;;5093191;28;19918;-77
2022/04/09 01:36:10;;;;;;;;;;;1.80;99.90;;;;;;5092310;28;20280;-76
2022/04/09 01:38:36;;;;;;;;;;;1.80;99.90;;;;;;5091684;28;19914;-76
2022/04/09 01:41:01;;;;;;;;;;;1.80;99.90;;;;;;5092663;28;20371;-76
2022/04/09 01:43:27;;;;;;;;;;;1.80;99.90;;;;;;5093333;28;20323;-77
2022/04/09 01:45:53;;;;;;;;;;;1.80;99.90;;;;;;5092773;28;19915;-75
2022/04/09 01:48:19;;;;;;;;;;;1.80;99.90;;;;;;5092975;28;20020;-77
2022/04/09 01:50:44;;;;;;;;;;;1.70;99.90;;;;;;5093065;28;20355;-77
2022/04/09 01:53:10;;;;;;;;;;;1.60;99.90;;;;;;5092162;28;19916;-77
2022/04/09 01:55:36;;;;;;;;;;;1.60;99.90;;;;;;5092746;28;19994;-77
2022/04/09 01:58:01;;;;;;;;;;;1.60;99.90;;;;;;5092468;28;19915;-77
2022/04/09 02:00:27;;;;;;;;;;;1.70;99.90;;;;;;5094452;28;19908;-78
2022/04/09 02:02:52;;;;;;;;;;;1.60;99.90;;;;;;5095856;28;20428;-77
2022/04/09 02:05:18;;;;;;;;;;;1.70;99.90;;;;;;5092069;28;19912;-77
2022/04/09 02:07:45;;;;;;;;;;;1.70;99.90;;;;;;5091867;28;19915;-77
2022/04/09 02:10:11;;;;;;;;;;;1.70;99.90;;;;;;5092233;28;19912;-77
2022/04/09 02:12:37;;;;;;;;;;;1.70;99.90;;;;;;5093030;28;20384;-77
2022/04/09 02:15:07;;;;;;;;;;;1.60;99.90;;;;;;5092255;28;20019;-77
2022/04/09 02:17:35;;;;;;;;;;;1.60;99.90;;;;;;5092810;28;19912;-77
2022/04/09 02:20:01;;;;;;;;;;;1.70;99.90;;;;;;5091923;28;19919;-77
2022/04/09 02:22:26;;;;;;;;;;;1.70;99.90;;;;;;5093021;28;19908;-77
2022/04/09 02:24:53;;;;;;;;;;;1.70;99.90;;;;;;5092281;28;19916;-77
2022/04/09 02:27:18;;;;;;;;;;;1.60;99.90;;;;;;5091955;28;19916;-77
2022/04/09 02:29:46;;;;;;;;;;;1.70;99.90;;;;;;5092787;28;19908;-77
2022/04/09 02:32:11;;;;;;;;;;;1.70;99.90;;;;;;5091806;28;20364;-77
2022/04/09 02:34:37;;;;;;;;;;;1.70;99.90;;;;;;5092510;28;19912;-77
2022/04/09 02:37:05;;;;;;;;;;;1.80;99.90;;;;;;5091781;28;19940;-77
2022/04/09 02:39:30;;;;;;;;;;;1.70;99.90;;;;;;5092795;28;19979;-77
2022/04/09 02:41:56;;;;;;;;;;;1.70;99.90;;;;;;5091238;28;20366;-76
2022/04/09 02:44:23;;;;;;;;;;;1.70;99.90;;;;;;5091825;28;19908;-77
2022/04/09 02:46:48;;;;;;;;;;;1.70;99.90;;;;;;5092111;28;19908;-77
2022/04/09 02:49:14;;;;;;;;;;;1.60;99.90;;;;;;5091458;28;19961;-77
2022/04/09 02:51:40;;;;;;;;;;;1.60;99.90;;;;;;5092207;28;19912;-77
2022/04/09 02:54:06;;;;;;;;;;;1.60;99.90;;;;;;5090270;28;20003;-76
2022/04/09 02:56:31;;;;;;;;;;;1.60;99.90;;;;;;5090891;28;19912;-77
2022/04/09 02:58:57;;;;;;;;;;;1.50;99.90;;;;;;5091105;28;19908;-77
2022/04/09 03:01:24;;;;;;;;;;;1.50;99.90;;;;;;5091746;28;19915;-77
2022/04/09 03:03:50;;;;;;;;;;;1.50;99.90;;;;;;5092095;28;20015;-77
2022/04/09 03:06:15;;;;;;;;;;;1.50;99.90;;;;;;5094076;28;20365;-77
2022/04/09 03:08:41;;;;;;;;;;;1.60;99.90;;;;;;5096182;28;19954;-77
2022/04/09 03:11:07;;;;;;;;;;;1.60;99.90;;;;;;5095358;28;20335;-77
2022/04/09 03:13:33;;;;;;;;;;;1.60;99.90;;;;;;5095918;28;19912;-77
2022/04/09 03:15:58;;;;;;;;;;;1.50;99.90;;;;;;5095881;28;19913;-77
2022/04/09 03:18:24;;;;;;;;;;;1.50;99.90;;;;;;5104388;28;19908;-76
2022/04/09 03:20:50;;;;;;;;;;;1.40;99.90;;;;;;5106764;28;20398;-77
2022/04/09 03:23:15;;;;;;;;;;;1.40;99.90;;;;;;5095030;28;19908;-76
2022/04/09 03:25:41;;;;;;;;;;;1.40;99.90;;;;;;5095632;28;19916;-77
2022/04/09 03:28:06;;;;;;;;;;;1.30;99.90;;;;;;5095139;28;19908;-77
2022/04/09 03:30:32;;;;;;;;;;;1.30;99.90;;;;;;5095678;28;19908;-77
2022/04/09 03:32:58;;;;;;;;;;;1.30;99.90;;;;;;5095543;28;19917;-77
2022/04/09 03:35:23;;;;;;;;;;;1.30;99.90;;;;;;5094875;28;19916;-77
2022/04/09 03:37:49;;;;;;;;;;;1.30;99.90;;;;;;5095471;28;19912;-77
2022/04/09 03:40:15;;;;;;;;;;;1.30;99.90;;;;;;5094830;28;19915;-77
2022/04/09 03:42:41;;;;;;;;;;;1.40;99.90;;;;;;5095584;28;19912;-77
2022/04/09 03:45:07;;;;;;;;;;;1.30;99.90;;;;;;5094859;28;20002;-77
2022/04/09 03:47:33;;;;;;;;;;;1.30;99.90;;;;;;5095681;28;19908;-78
2022/04/09 03:50:02;;;;;;;;;;;1.30;99.90;;;;;;5095098;28;19915;-78
2022/04/09 03:52:28;;;;;;;;;;;1.30;99.90;;;;;;5094863;28;19908;-78
2022/04/09 03:54:53;;;;;;;;;;;1.30;99.90;;;;;;5094896;28;19980;-77
2022/04/09 03:57:19;;;;;;;;;;;1.30;99.90;;;;;;5094386;28;19916;-78
2022/04/09 03:59:45;;;;;;;;;;;1.20;99.90;;;;;;5095068;28;20265;-78
2022/04/09 04:02:10;;;;;;;;;;;1.30;99.90;;;;;;5094445;28;19912;-77
2022/04/09 04:04:37;;;;;;;;;;;1.20;99.90;;;;;;5093418;28;19920;-77
2022/04/09 04:07:03;;;;;;;;;;;1.20;99.90;;;;;;5094577;28;19915;-76
2022/04/09 04:09:29;;;;;;;;;;;1.20;99.90;;;;;;5094303;28;19908;-78
2022/04/09 04:11:55;;;;;;;;;;;1.20;99.90;;;;;;5094643;28;19978;-77
2022/04/09 04:14:20;;;;;;;;;;;1.20;99.90;;;;;;5094166;28;20268;-77
2022/04/09 04:16:46;;;;;;;;;;;1.20;99.90;;;;;;5094730;28;19920;-78
2022/04/09 04:19:11;;;;;;;;;;;1.20;99.90;;;;;;5094119;28;20325;-77
2022/04/09 04:21:38;;;;;;;;;;;1.30;99.90;;;;;;5094576;28;19912;-77
2022/04/09 04:24:04;;;;;;;;;;;1.30;99.90;;;;;;5094452;28;19908;-77
2022/04/09 04:26:30;;;;;;;;;;;1.30;99.90;;;;;;5093963;28;19953;-77
2022/04/09 04:28:55;;;;;;;;;;;1.20;99.90;;;;;;5094638;28;19912;-77
2022/04/09 04:31:21;;;;;;;;;;;1.30;99.90;;;;;;5093736;28;19919;-77
2022/04/09 04:33:46;;;;;;;;;;;1.30;99.90;;;;;;5094341;28;20379;-77
2022/04/09 04:36:12;;;;;;;;;;;1.40;99.90;;;;;;5093553;28;19918;-77
2022/04/09 04:38:38;;;;;;;;;;;1.40;99.90;;;;;;5094019;28;19908;-77
2022/04/09 04:41:04;;;;;;;;;;;1.40;99.90;;;;;;5094209;28;20019;-77
2022/04/09 04:43:30;;;;;;;;;;;1.50;99.90;;;;;;5093572;28;19912;-77
2022/04/09 04:45:56;;;;;;;;;;;1.50;99.90;;;;;;5094047;28;19915;-77
2022/04/09 04:48:22;;;;;;;;;;;1.50;99.90;;;;;;5093077;28;19908;-77
2022/04/09 04:50:47;;;;;;;;;;;1.50;99.90;;;;;;5093932;28;19908;-77
2022/04/09 04:53:13;;;;;;;;;;;1.50;99.90;;;;;;5092839;28;20274;-77
2022/04/09 04:55:39;;;;;;;;;;;1.50;99.90;;;;;;5093597;28;19919;-77
2022/04/09 04:58:04;;;;;;;;;;;1.50;99.90;;;;;;5091940;28;19908;-78
2022/04/09 05:00:30;;;;;;;;;;;1.50;99.90;;;;;;5092881;28;19916;-78
2022/04/09 05:02:56;;;;;;;;;;;1.50;99.90;;;;;;5093492;28;19928;-77
2022/04/09 05:05:21;;;;;;;;;;;1.50;99.90;;;;;;5096047;28;19912;-78
2022/04/09 05:07:48;;;;;;;;;;;1.50;99.90;;;;;;5095181;28;19909;-77
2022/04/09 05:10:15;;;;;;;;;;;1.50;99.90;;;;;;5093144;28;19908;-77
2022/04/09 05:12:41;;;;;;;;;;;1.50;99.90;;;;;;5092453;28;20310;-77
2022/04/09 05:15:07;;;;;;;;;;;1.60;99.90;;;;;;5093651;28;19912;-77
2022/04/09 05:17:33;;;;;;;;;;;1.60;99.90;;;;;;5093011;28;19909;-77
2022/04/09 05:19:59;;;;;;;;;;;1.60;99.90;;;;;;5093487;28;19909;-77
2022/04/09 05:22:27;;;;;;;;;;;1.60;99.90;;;;;;5092879;28;19915;-77
2022/04/09 05:24:53;;;;;;;;;;;1.60;99.90;;;;;;5091956;28;19999;-77
2022/04/09 05:27:19;;;;;;;;;;;1.60;99.90;;;;;;5092771;28;20414;-77
2022/04/09 05:29:44;;;;;;;;;;;1.60;99.90;;;;;;5091550;28;20276;-77
2022/04/09 05:32:10;;;;;;;;;;;1.70;99.90;;;;;;5091866;28;19912;-76
2022/04/09 05:34:36;;;;;;;;;;;1.60;99.90;;;;;;5092703;28;19919;-77
2022/04/09 05:37:01;;;;;;;;;;;1.70;99.90;;;;;;5093205;28;20436;-77
2022/04/09 05:39:27;;;;;;;;;;;1.60;99.90;;;;;;5092621;28;19908;-77
2022/04/09 05:41:53;;;;;;;;;;;1.70;99.90;;;;;;5093173;28;19912;-78
2022/04/09 05:44:18;;;;;;;;;;;1.70;99.90;;;;;;5092485;28;19908;-77
2022/04/09 05:46:44;;;;;;;;;;;1.60;99.90;;;;;;5091947;28;19912;-78
2022/04/09 05:49:09;;;;;;;;;;;1.70;99.90;;;;;;5093580;28;19908;-78
2022/04/09 05:51:36;;;;;;;;;;;1.60;99.90;;;;;;5092531;28;19908;-78
2022/04/09 05:54:02;;;;;;;;;;;1.70;99.90;;;;;;5092967;28;19995;-78
2022/04/09 05:56:28;;;;;;;;;;;1.70;99.90;;;;;;5092301;28;20369;-77
2022/04/09 05:58:53;;;;;;;;;;;1.70;99.90;;;;;;5093213;28;19952;-78
2022/04/09 06:01:19;;;;;;;;;;;1.70;99.90;;;;;;5092516;28;19908;-78
2022/04/09 06:03:45;;;;;;;;;;;1.70;99.90;;;;;;5092553;28;19920;-78
2022/04/09 06:06:11;;;;;;;;;;;1.70;99.90;;;;;;5092943;28;19912;-78
2022/04/09 06:08:37;;;;;;;;;;;1.80;99.90;;;;;;5092103;28;19914;-77
2022/04/09 06:11:02;;;;;;;;;;;1.80;99.90;;;;;;5092616;28;20006;-77
2022/04/09 06:13:28;;;;;;;;;;;1.90;99.90;;;;;;5091730;28;19916;-78
2022/04/09 06:15:54;;;;;;;;;;;2.00;99.90;;;;;;5092561;28;19919;-78
2022/04/09 06:18:19;;;;;;;;;;;2.10;99.90;;;;;;5092380;28;19908;-77
2022/04/09 06:20:45;;;;;;;;;;;2.20;99.90;;;;;;5092793;28;20265;-77
2022/04/09 06:23:10;;;;;;;;;;;2.30;99.90;;;;;;5109154;28;19912;-79
2022/04/09 06:25:36;;;;;;;;;;;2.40;99.90;;;;;;5093661;28;20358;-78
2022/04/09 06:28:02;;;;;;;;;;;2.50;99.90;;;;;;5092371;28;19908;-78
2022/04/09 06:30:27;;;;;;;;;;;2.60;99.90;;;;;;5092173;28;19934;-78
2022/04/09 06:32:53;;;;;;;;;;;2.70;99.90;;;;;;5092608;28;20057;-78
2022/04/09 06:35:19;;;;;;;;;;;2.80;99.90;;;;;;5090844;28;19935;-77
2022/04/09 06:37:45;;;;;;;;;;;2.90;99.90;;;;;;5092679;28;19909;-77
2022/04/09 06:40:10;;;;;;;;;;;3.00;99.90;;;;;;5092969;28;19919;-77
2022/04/09 06:42:36;;;;;;;;;;;3.20;99.90;;;;;;5095716;28;19908;-77
2022/04/09 06:45:02;;;;;;;;;;;3.30;99.90;;;;;;5094981;28;19908;-77
2022/04/09 06:47:28;;;;;;;;;;;3.30;99.90;;;;;;5095904;28;19908;-77
2022/04/09 06:49:54;;;;;;;;;;;3.40;99.90;;;;;;5096500;28;20334;-77
2022/04/09 06:52:19;;;;;;;;;;;3.50;99.90;;;;;;5095682;28;19908;-76
2022/04/09 06:54:45;;;;;;;;;;;3.50;99.90;;;;;;5095660;28;19911;-77
2022/04/09 06:57:10;;;;;;;;;;;3.60;99.90;;;;;;5095741;28;19919;-77
2022/04/09 06:59:36;;;;;;;;;;;3.60;99.90;;;;;;5094090;28;19934;-77
2022/04/09 07:02:02;;;;;;;;;;;3.60;99.90;;;;;;5094429;28;20372;-77
2022/04/09 07:04:27;;;;;;;;;;;3.70;99.90;;;;;;5095426;28;20010;-77
2022/04/09 07:06:53;;;;;;;;;;;3.80;99.90;;;;;;5094550;28;20046;-77
2022/04/09 07:09:18;;;;;;;;;;;3.80;99.90;;;;;;5094418;28;19915;-75
2022/04/09 07:11:44;;;;;;;;;;;4.00;99.90;;;;;;5095856;28;20370;-76
2022/04/09 07:14:09;;;;;;;;;;;4.10;99.90;;;;;;5095775;28;19912;-77
2022/04/09 07:16:35;;;;;;;;;;;4.30;99.90;;;;;;5093440;28;19954;-77
2022/04/09 07:19:01;;;;;;;;;;;4.40;99.90;;;;;;5095316;28;20002;-77
2022/04/09 07:21:27;;;;;;;;;;;4.40;99.90;;;;;;5094890;28;19909;-77
2022/04/09 07:23:53;;;;;;;;;;;4.50;99.90;;;;;;5095403;28;19916;-78
2022/04/09 07:26:20;;;;;;;;;;;4.60;99.90;;;;;;5095564;28;19908;-76
2022/04/09 07:28:46;;;;;;;;;;;4.70;99.90;;;;;;5094366;28;19912;-77
2022/04/09 07:31:12;;;;;;;;;;;4.80;99.90;;;;;;5095654;28;19908;-77
2022/04/09 07:33:37;;;;;;;;;;;4.90;99.90;;;;;;5093237;28;19912;-77
2022/04/09 07:36:03;;;;;;;;;;;5.00;99.90;;;;;;5095240;28;19951;-77
2022/04/09 07:38:29;;;;;;;;;;;5.10;99.90;;;;;;5096209;28;19915;-78
2022/04/09 07:40:55;;;;;;;;;;;5.10;99.90;;;;;;5103502;28;19909;-77
2022/04/09 07:43:20;;;;;;;;;;;5.20;99.90;;;;;;5093064;28;20369;-76
2022/04/09 07:45:46;;;;;;;;;;;5.20;99.90;;;;;;5095348;28;20003;-77
2022/04/09 07:48:12;;;;;;;;;;;5.30;99.90;;;;;;5094896;28;19912;-77
2022/04/09 07:50:37;;;;;;;;;;;5.30;99.90;;;;;;5093681;28;19908;-77
2022/04/09 07:53:03;;;;;;;;;;;5.40;99.90;;;;;;5094288;28;19912;-77
2022/04/09 07:55:29;;;;;;;;;;;5.40;99.90;;;;;;5094294;28;20011;-77
2022/04/09 07:57:58;;;;;;;;;;;5.50;99.90;;;;;;5094543;28;19908;-78
2022/04/09 08:00:24;;;;;;;;;;;5.60;99.90;;;;;;5094096;28;19915;-76
2022/04/09 08:02:49;;;;;;;;;;;5.70;99.90;;;;;;5094702;28;20018;-78
2022/04/09 08:05:18;;;;;;;;;;;5.80;99.90;;;;;;5094995;28;20397;-78
2022/04/09 08:07:44;;;;;;;;;;;5.90;99.90;;;;;;5094197;28;19947;-78
2022/04/09 08:10:11;;;;;;;;;;;5.90;99.90;;;;;;5094702;28;19915;-78
2022/04/09 08:12:37;;;;;;;;;;;6.00;99.90;;;;;;5093456;28;19915;-77
2022/04/09 08:15:04;;;;;;;;;;;6.10;99.90;;;;;;5093213;28;20345;-78
2022/04/09 08:17:29;;;;;;;;;;;6.20;99.90;;;;;;5093749;28;20319;-77
2022/04/09 08:19:56;;;;;;;;;;;6.20;99.90;;;;;;5094190;28;19908;-77
2022/04/09 08:22:22;;;;;;;;;;;6.30;99.90;;;;;;5094057;28;19965;-78
2022/04/09 08:24:48;;;;;;;;;;;6.30;99.90;;;;;;5093978;28;20010;-77
2022/04/09 08:27:14;;;;;;;;;;;6.40;99.90;;;;;;5094430;28;19939;-78
2022/04/09 08:29:40;;;;;;;;;;;6.50;99.90;;;;;;5093765;28;19912;-78
2022/04/09 08:32:06;;;;;;;;;;;6.60;99.90;;;;;;5094640;28;19934;-77
2022/04/09 08:34:33;;;;;;;;;;;6.60;99.90;;;;;;5093203;28;20284;-77
2022/04/09 08:36:59;;;;;;;;;;;6.70;99.90;;;;;;5093829;28;19912;-77
2022/04/09 08:39:25;;;;;;;;;;;6.70;99.90;;;;;;5092174;28;19915;-77
2022/04/09 08:41:52;;;;;;;;;;;6.80;99.90;;;;;;5093942;28;19912;-77
2022/04/09 08:44:18;;;;;;;;;;;6.70;99.90;;;;;;5093431;28;20311;-78
2022/04/09 08:46:46;;;;;;;;;;;6.60;99.90;;;;;;5093138;28;19924;-77
2022/04/09 08:49:11;;;;;;;;;;;6.60;99.90;;;;;;5093473;28;20288;-77
2022/04/09 08:51:37;;;;;;;;;;;6.60;99.90;;;;;;5093322;28;19961;-77
2022/04/09 08:54:04;;;;;;;;;;;6.70;99.90;;;;;;5093496;28;19916;-77
2022/04/09 08:56:31;;;;;;;;;;;6.70;99.90;;;;;;5093193;28;19919;-76
2022/04/09 08:58:57;;;;;;;;;;;6.80;99.90;;;;;;5093767;28;20268;-76
2022/04/09 09:01:23;;;;;;;;;;;6.90;99.90;;;;;;5093522;28;19915;-76
2022/04/09 09:03:48;;;;;;;;;;;7.00;99.90;;;;;;5092240;28;20277;-75
2022/04/09 09:06:27;;;;;;;;;;;7.10;99.90;;;;;;5093477;28;20015;-76
2022/04/09 09:08:52;;;;;;;;;;;7.20;99.90;;;;;;5093135;28;19960;-75
2022/04/09 09:11:19;;;;;;;;;;;7.20;99.90;;;;;;5093822;28;20299;-76
2022/04/09 09:13:52;;;;;;;;;;;7.30;99.90;;;;;;5092376;28;19912;-76
2022/04/09 09:16:35;;;;;;;;;;;7.40;99.90;;;;;;5093566;28;19912;-75
2022/04/09 09:19:06;;;;;;;;;;;7.40;99.90;;;;;;5093305;28;19995;-76
2022/04/09 09:21:31;;;;;;;;;;;7.40;99.90;;;;;;5092267;28;19912;-75
2022/04/09 09:24:11;;;;;;;;;;;7.50;99.90;;;;;;5092490;28;20379;-76
2022/04/09 09:26:40;;;;;;;;;;;7.60;99.90;;;;;;5090891;28;20419;-76
2022/04/09 09:29:09;;;;;;;;;;;7.60;99.90;;;;;;5093244;28;19915;-76
2022/04/09 09:31:39;;;;;;;;;;;7.80;99.90;;;;;;5091207;28;19908;-76
2022/04/09 09:34:11;;;;;;;;;;;7.90;99.90;;;;;;5092923;28;20029;-76
2022/04/09 09:36:40;;;;;;;;;;;8.00;99.90;;;;;;5091523;28;19916;-76
2022/04/09 09:39:06;;;;;;;;;;;8.10;99.90;;;;;;5092505;28;19915;-76
2022/04/09 09:41:32;;;;;;;;;;;8.20;99.90;;;;;;5092155;28;19908;-75
2022/04/09 09:44:04;;;;;;;;;;;8.20;99.90;;;;;;5092757;28;20002;-76
2022/04/09 09:46:30;;;;;;;;;;;8.10;99.90;;;;;;5092881;28;19908;-75
2022/04/09 09:48:57;;;;;;;;;;;8.10;99.90;;;;;;5092327;28;19908;-76
2022/04/09 09:51:23;;;;;;;;;;;8.10;99.90;;;;;;5092463;28;20269;-76
2022/04/09 09:53:49;;;;;;;;;;;8.20;99.90;;;;;;5092369;28;20077;-76
2022/04/09 09:56:31;;;;;;;;;;;8.20;99.90;;;;;;5092946;28;19959;-76
2022/04/09 09:58:57;;;;;;;;;;;8.20;99.90;;;;;;5092867;28;20010;-76
2022/04/09 10:01:23;;;;;;;;;;;8.30;99.90;;;;;;5092403;28;20005;-76
2022/04/09 10:03:49;;;;;;;;;;;8.30;99.90;;;;;;5091495;28;19920;-76
2022/04/09 10:06:15;;;;;;;;;;;8.30;99.90;;;;;;5091465;28;19912;-76
2022/04/09 10:08:40;;;;;;;;;;;8.50;99.90;;;;;;5092157;28;20007;-76
2022/04/09 10:11:06;;;;;;;;;;;8.50;99.90;;;;;;5092625;28;19953;-76
2022/04/09 10:13:34;;;;;;;;;;;8.50;99.90;;;;;;5092742;28;19912;-75
2022/04/09 10:16:01;;;;;;;;;;;8.40;99.90;;;;;;5096041;28;19912;-76
2022/04/09 10:18:27;;;;;;;;;;;8.50;99.90;;;;;;5096106;28;20373;-76
2022/04/09 10:21:00;;;;;;;;;;;8.70;99.90;;;;;;5096173;28;19908;-76
2022/04/09 10:23:27;;;;;;;;;;;9.00;99.90;;;;;;5096805;28;20006;-76
2022/04/09 10:25:53;;;;;;;;;;;9.00;99.90;;;;;;5095742;28;19998;-76
2022/04/09 10:28:48;;;;;;;;;;;9.00;99.90;;;;;;5096555;28;20349;-76
2022/04/09 10:31:22;;;;;;;;;;;8.90;99.90;;;;;;5087135;28;20315;-76
2022/04/09 10:33:54;;;;;;;;;;;8.60;99.90;;;;;;5095768;28;19912;-76
2022/04/09 10:36:39;;;;;;;;;;;8.50;99.90;;;;;;5096298;28;19913;-76
2022/04/09 10:39:23;;;;;;;;;;;8.30;99.90;;;;;;5095911;28;19931;-76
2022/04/09 10:41:49;;;;;;;;;;;8.30;99.90;;;;;;5095684;28;19915;-76
2022/04/09 10:44:34;;;;;;;;;;;8.60;99.90;;;;;;5096299;28;20276;-76
2022/04/09 10:47:03;;;;;;;;;;;8.90;99.90;;;;;;5096188;28;19912;-76
2022/04/09 10:49:29;;;;;;;;;;;8.90;99.90;;;;;;5095901;28;19908;-76
2022/04/09 10:52:06;;;;;;;;;;;8.80;99.90;;;;;;5095065;28;20611;-77
2022/04/09 10:54:32;;;;;;;;;;;8.80;99.90;;;;;;5094423;28;19919;-77
2022/04/09 10:57:08;;;;;;;;;;;8.90;99.90;;;;;;5095311;28;20354;-77
2022/04/09 10:59:34;;;;;;;;;;;9.00;99.90;;;;;;5095697;28;19908;-76
2022/04/09 11:02:02;;;;;;;;;;;9.00;99.90;;;;;;5094935;28;19916;-77
2022/04/09 11:07:20;;;;;;;;;;;9.10;99.90;;;;;;5095002;28;19915;-75
2022/04/09 11:09:48;;;;;;;;;;;9.20;99.90;;;;;;5092835;28;20399;-76
2022/04/09 11:12:15;;;;;;;;;;;9.30;99.90;;;;;;5095278;28;19912;-77
2022/04/09 11:14:50;;;;;;;;;;;9.40;99.90;;;;;;5095394;28;20726;-77
2022/04/09 11:17:22;;;;;;;;;;;9.60;99.90;;;;;;5094130;28;19965;-76
2022/04/09 11:19:48;;;;;;;;;;;9.60;99.90;;;;;;5094518;28;19908;-77
2022/04/09 11:22:14;;;;;;;;;;;9.60;99.90;;;;;;5094519;28;19915;-76
2022/04/09 11:24:40;;;;;;;;;;;9.50;99.90;;;;;;5094252;28;19921;-76
2022/04/09 11:27:05;;;;;;;;;;;9.50;99.90;;;;;;5093481;28;19908;-76
2022/04/09 11:29:34;;;;;;;;;;;9.50;99.90;;;;;;5094850;28;19946;-77
2022/04/09 11:32:00;;;;;;;;;;;9.40;99.90;;;;;;5094244;28;19966;-77
2022/04/09 11:34:26;;;;;;;;;;;9.40;99.90;;;;;;5094628;28;20353;-76
2022/04/09 11:37:11;;;;;;;;;;;9.50;99.90;;;;;;5094077;28;19912;-77
2022/04/09 11:39:38;;;;;;;;;;;9.40;99.90;;;;;;5093952;28;19998;-76
2022/04/09 11:42:05;;;;;;;;;;;9.60;99.90;;;;;;5094063;28;19912;-77
2022/04/09 11:44:30;;;;;;;;;;;9.70;99.90;;;;;;5094245;28;19912;-76
2022/04/09 11:46:57;;;;;;;;;;;10.00;99.90;;;;;;5092370;28;20003;-77
2022/04/09 11:49:28;;;;;;;;;;;10.20;99.90;;;;;;5094156;28;20325;-77
2022/04/09 11:51:54;;;;;;;;;;;10.30;99.90;;;;;;5093506;28;20254;-77
2022/04/09 11:54:20;;;;;;;;;;;10.40;99.90;;;;;;5094368;28;19912;-78
2022/04/09 11:56:45;;;;;;;;;;;10.50;99.90;;;;;;5093570;28;20453;-78
2022/04/09 11:59:12;;;;;;;;;;;10.40;99.90;;;;;;5094185;28;19963;-77
2022/04/09 12:01:38;;;;;;;;;;;10.30;99.90;;;;;;5093459;28;19912;-76
2022/04/09 12:04:03;;;;;;;;;;;10.20;99.90;;;;;;5093936;28;19927;-78
2022/04/09 12:06:29;;;;;;;;;;;10.30;99.90;;;;;;5094042;28;19912;-77
2022/04/09 12:08:55;;;;;;;;;;;10.40;99.90;;;;;;5093367;28;20521;-77
2022/04/09 12:11:20;;;;;;;;;;;10.50;99.90;;;;;;5093833;28;19923;-77
2022/04/09 12:13:46;;;;;;;;;;;10.60;99.90;;;;;;5093239;28;20023;-77
2022/04/09 12:16:12;;;;;;;;;;;10.70;99.90;;;;;;5093867;28;20382;-78
2022/04/09 12:18:38;;;;;;;;;;;10.70;99.90;;;;;;5093085;28;19915;-76
2022/04/09 12:21:36;;;;;;;;;;;10.70;99.90;;;;;;5093725;28;19914;-77
2022/04/09 12:24:03;;;;;;;;;;;10.60;99.90;;;;;;5069775;28;19912;-77
2022/04/09 12:26:30;;;;;;;;;;;10.50;99.90;;;;;;5093404;28;19961;-77
2022/04/09 12:29:05;;;;;;;;;;;10.20;99.90;;;;;;5091499;28;19912;-77
2022/04/09 12:31:32;;;;;;;;;;;10.30;99.90;;;;;;5093132;28;19916;-77
2022/04/09 12:33:58;;;;;;;;;;;10.30;99.90;;;;;;5092363;28;19915;-77
2022/04/09 12:36:23;;;;;;;;;;;10.40;99.90;;;;;;5093196;28;19912;-77
2022/04/09 12:38:49;;;;;;;;;;;10.60;99.90;;;;;;5093016;28;19908;-77
2022/04/09 12:41:14;;;;;;;;;;;10.60;99.90;;;;;;5092968;28;19908;-78
2022/04/09 12:43:41;;;;;;;;;;;10.60;99.90;;;;;;5092914;28;20268;-77
2022/04/09 12:46:14;;;;;;;;;;;10.60;99.90;;;;;;5093692;28;19908;-78
2022/04/09 12:48:39;;;;;;;;;;;10.70;99.90;;;;;;5092867;28;19984;-77
2022/04/09 12:51:05;;;;;;;;;;;10.80;99.90;;;;;;5093194;28;19915;-77
2022/04/09 12:53:31;;;;;;;;;;;10.90;99.90;;;;;;5092980;28;19969;-75
2022/04/09 12:55:56;;;;;;;;;;;11.10;99.90;;;;;;5092111;28;19923;-76
2022/04/09 12:58:22;;;;;;;;;;;11.10;99.90;;;;;;5092558;28;20422;-75
2022/04/09 13:00:48;;;;;;;;;;;11.20;99.90;;;;;;5092917;28;20414;-76
2022/04/09 13:03:13;;;;;;;;;;;11.20;99.90;;;;;;5094048;28;19920;-76
2022/04/09 13:05:41;;;;;;;;;;;11.20;99.90;;;;;;5094154;28;19919;-76
2022/04/09 13:08:07;;;;;;;;;;;11.20;99.90;;;;;;5094688;28;19931;-76
2022/04/09 13:10:34;;;;;;;;;;;11.00;99.90;;;;;;5109148;28;19908;-76
2022/04/09 13:13:00;;;;;;;;;;;10.80;99.90;;;;;;5099114;28;19908;-75
2022/04/09 13:15:26;;;;;;;;;;;10.60;99.90;;;;;;5102073;28;19912;-76
2022/04/09 13:17:51;;;;;;;;;;;10.70;99.90;;;;;;5106512;28;19988;-77
2022/04/09 13:20:18;;;;;;;;;;;10.70;99.90;;;;;;5095449;28;20005;-77
2022/04/09 13:22:44;;;;;;;;;;;10.70;99.90;;;;;;5107758;28;19934;-76
2022/04/09 13:25:09;;;;;;;;;;;10.70;99.90;;;;;;5101271;28;19912;-76
2022/04/09 13:27:36;;;;;;;;;;;10.80;99.90;;;;;;5100546;28;19977;-76
2022/04/09 13:30:01;;;;;;;;;;;11.00;99.90;;;;;;5107782;28;19919;-76
2022/04/09 13:32:29;;;;;;;;;;;11.20;99.90;;;;;;5095766;28;19908;-76
2022/04/09 13:34:54;;;;;;;;;;;11.10;99.90;;;;;;5105479;28;19921;-76
2022/04/09 13:37:20;;;;;;;;;;;10.80;99.90;;;;;;5102020;28;19919;-76
2022/04/09 13:39:46;;;;;;;;;;;10.70;99.90;;;;;;5098112;28;19961;-77
2022/04/09 13:42:12;;;;;;;;;;;10.60;99.90;;;;;;5097997;28;20026;-76
2022/04/09 13:44:43;;;;;;;;;;;10.50;99.90;;;;;;5107990;28;20281;-77
2022/04/09 13:47:10;;;;;;;;;;;10.40;99.90;;;;;;5100386;28;20365;-77
2022/04/09 13:49:36;;;;;;;;;;;10.40;99.90;;;;;;5099672;28;20230;-77
2022/04/09 13:52:03;;;;;;;;;;;10.70;99.90;;;;;;5106907;28;19915;-78
2022/04/09 13:54:28;;;;;;;;;;;10.90;99.90;;;;;;5095186;28;20422;-78
2022/04/09 13:56:54;;;;;;;;;;;11.20;99.90;;;;;;5097010;28;20027;-79
2022/04/09 13:59:19;;;;;;;;;;;11.40;99.90;;;;;;5093947;28;19912;-80
2022/04/09 14:01:45;;;;;;;;;;;11.30;99.90;;;;;;5092932;28;19983;-79
2022/04/09 14:04:11;;;;;;;;;;;11.10;99.90;;;;;;5092505;28;19931;-79
2022/04/09 14:06:36;;;;;;;;;;;11.00;99.90;;;;;;5090304;28;19908;-78
2022/04/09 14:09:02;;;;;;;;;;;10.80;99.90;;;;;;5091821;28;19943;-78
2022/04/09 14:11:28;;;;;;;;;;;10.70;99.90;;;;;;5093828;28;19915;-78
2022/04/09 14:13:54;;;;;;;;;;;10.60;99.90;;;;;;5089853;28;20357;-78
2022/04/09 14:16:19;;;;;;;;;;;10.70;99.90;;;;;;5092039;28;19912;-78
2022/04/09 14:18:46;;;;;;;;;;;10.90;99.90;;;;;;5091867;28;20280;-78
2022/04/09 14:21:12;;;;;;;;;;;11.10;99.90;;;;;;5092071;28;20345;-78
2022/04/09 14:23:38;;;;;;;;;;;11.30;99.90;;;;;;5091747;28;19916;-78
2022/04/09 14:26:03;;;;;;;;;;;11.50;99.90;;;;;;5092065;28;19909;-78
2022/04/09 14:28:29;;;;;;;;;;;11.70;99.90;;;;;;5092706;28;19954;-79